createdAt,value
2018-11-23T00:00:18.426Z,16.60
2018-11-23T00:02:46.809Z,14.57
2018-11-23T00:05:14.687Z,15.60
2018-11-23T00:07:42.741Z,16.00
2018-11-23T00:10:12.313Z,15.47
2018-11-23T00:12:39.939Z,17.10
2018-11-23T00:15:09.490Z,16.60
2018-11-23T00:17:37.359Z,15.20
2018-11-23T00:20:08.001Z,17.47
2018-11-23T00:22:35.787Z,16.07
2018-11-23T00:25:11.861Z,17.23
2018-11-23T00:27:39.824Z,16.30
2018-11-23T00:30:12.468Z,16.90
2018-11-23T00:32:40.374Z,16.10
2018-11-23T00:35:09.768Z,17.80
2018-11-23T00:37:37.503Z,16.23
2018-11-23T00:40:07.285Z,16.87
2018-11-23T00:42:34.968Z,17.13
2018-11-23T00:45:02.867Z,17.97
2018-11-23T00:47:31.442Z,15.80
2018-11-23T00:49:59.157Z,17.33
2018-11-23T00:52:27.044Z,17.40
2018-11-23T00:54:54.679Z,16.40
2018-11-23T00:57:22.419Z,16.50
2018-11-23T00:59:50.341Z,16.20
2018-11-23T01:02:17.924Z,16.30
2018-11-23T01:04:45.561Z,17.07
2018-11-23T01:07:13.220Z,15.37
2018-11-23T01:09:41.216Z,16.57
2018-11-23T01:12:08.874Z,16.57
2018-11-23T01:14:36.564Z,17.20
2018-11-23T01:17:04.450Z,16.00
2018-11-23T01:19:32.231Z,14.87
2018-11-23T01:22:00.061Z,16.43
2018-11-23T01:24:27.799Z,15.90
2018-11-23T01:26:55.451Z,17.70
2018-11-23T01:29:23.184Z,16.60
2018-11-23T01:31:50.896Z,17.20
2018-11-23T01:34:18.504Z,15.17
2018-11-23T01:36:46.393Z,16.30
2018-11-23T01:39:14.078Z,16.40
2018-11-23T01:41:41.739Z,14.80
2018-11-23T01:44:09.444Z,16.73
2018-11-23T01:46:37.226Z,16.57
2018-11-23T01:49:05.065Z,16.93
2018-11-23T01:51:32.827Z,15.50
2018-11-23T01:54:00.639Z,16.23
2018-11-23T01:56:28.320Z,16.00
2018-11-23T01:58:56.033Z,15.47
2018-11-23T02:01:24.058Z,15.10
2018-11-23T02:03:51.971Z,15.37
2018-11-23T02:06:19.700Z,15.63
2018-11-23T02:08:48.641Z,16.53
2018-11-23T02:11:16.379Z,15.00
2018-11-23T02:13:44.157Z,17.57
2018-11-23T02:16:11.637Z,14.27
2018-11-23T02:18:39.264Z,15.97
2018-11-23T02:21:07.086Z,16.50
2018-11-23T02:23:34.782Z,16.13
2018-11-23T02:26:02.377Z,15.90
2018-11-23T02:28:30.368Z,16.40
2018-11-23T02:31:02.644Z,16.30
2018-11-23T02:33:30.525Z,16.37
2018-11-23T02:35:58.368Z,17.07
2018-11-23T02:38:26.072Z,17.40
2018-11-23T02:40:53.774Z,15.40
2018-11-23T02:43:21.404Z,15.60
2018-11-23T02:45:49.056Z,16.40
2018-11-23T02:48:16.727Z,15.07
2018-11-23T02:50:44.391Z,16.70
2018-11-23T02:53:12.097Z,15.53
2018-11-23T02:55:39.688Z,16.10
2018-11-23T02:58:07.358Z,17.43
2018-11-23T03:00:34.998Z,17.57
2018-11-23T03:03:03.318Z,16.80
2018-11-23T03:05:30.947Z,15.87
2018-11-23T03:07:58.667Z,15.80
2018-11-23T03:10:26.423Z,16.27
2018-11-23T03:12:54.265Z,16.00
2018-11-23T03:15:22.274Z,15.07
2018-11-23T03:17:50.338Z,15.17
2018-11-23T03:20:19.241Z,16.27
2018-11-23T03:22:47.083Z,15.90
2018-11-23T03:25:15.204Z,17.23
2018-11-23T03:27:42.918Z,16.47
2018-11-23T03:30:14.077Z,17.10
2018-11-23T03:32:42.019Z,17.83
2018-11-23T03:35:09.766Z,16.37
2018-11-23T03:37:37.646Z,18.60
2018-11-23T03:40:06.835Z,16.63
2018-11-23T03:42:34.534Z,18.43
2018-11-23T03:45:02.847Z,17.00
2018-11-23T03:47:30.537Z,17.00
2018-11-23T03:49:58.200Z,15.90
2018-11-23T03:52:25.862Z,16.90
2018-11-23T03:54:53.407Z,17.27
2018-11-23T03:57:21.084Z,15.60
2018-11-23T03:59:48.781Z,16.57
2018-11-23T04:02:16.608Z,17.07
2018-11-23T04:04:44.759Z,18.00
2018-11-23T04:07:12.795Z,17.47
2018-11-23T04:09:40.965Z,16.17
2018-11-23T04:12:08.994Z,16.40
2018-11-23T04:14:38.115Z,16.07
2018-11-23T04:17:06.314Z,17.23
2018-11-23T04:19:34.307Z,15.77
2018-11-23T04:22:02.781Z,18.70
2018-11-23T04:24:31.165Z,16.77
2018-11-23T04:26:59.183Z,18.60
2018-11-23T04:29:27.605Z,17.53
2018-11-23T04:31:56.634Z,16.40
2018-11-23T04:34:25.351Z,17.33
2018-11-23T04:36:53.582Z,17.37
2018-11-23T04:39:22.162Z,17.87
2018-11-23T04:41:51.246Z,16.43
2018-11-23T04:44:19.569Z,16.80
2018-11-23T04:46:48.157Z,16.57
2018-11-23T04:49:16.590Z,17.00
2018-11-23T04:51:44.834Z,15.60
2018-11-23T04:54:13.048Z,17.40
2018-11-23T04:56:41.371Z,16.20
2018-11-23T04:59:09.487Z,65.80
2018-11-23T05:01:37.935Z,53.40
2018-11-23T05:04:06.042Z,30.83
2018-11-23T05:06:34.298Z,23.33
2018-11-23T05:09:03.006Z,19.30
2018-11-23T05:11:31.116Z,19.27
2018-11-23T05:13:59.083Z,16.80
2018-11-23T05:16:27.030Z,16.60
2018-11-23T05:18:54.994Z,17.60
2018-11-23T05:21:23.179Z,18.70
2018-11-23T05:23:50.966Z,16.80
2018-11-23T05:26:18.807Z,17.33
2018-11-23T05:28:46.487Z,17.80
2018-11-23T05:31:14.264Z,36.63
2018-11-23T05:33:42.329Z,41.63
2018-11-23T05:36:10.256Z,40.43
2018-11-23T05:38:38.380Z,24.53
2018-11-23T05:41:06.356Z,20.27
2018-11-23T05:43:34.365Z,19.03
2018-11-23T05:46:02.706Z,18.60
2018-11-23T05:48:30.902Z,17.77
2018-11-23T05:50:59.054Z,17.57
2018-11-23T05:53:27.533Z,17.87
2018-11-23T05:55:55.880Z,18.10
2018-11-23T05:58:25.243Z,17.87
2018-11-23T06:00:53.391Z,19.50
2018-11-23T06:03:21.692Z,18.47
2018-11-23T06:05:49.873Z,20.17
2018-11-23T06:08:18.233Z,18.20
2018-11-23T06:10:46.142Z,18.23
2018-11-23T06:13:14.119Z,17.80
2018-11-23T06:15:44.625Z,18.13
2018-11-23T06:18:10.254Z,18.03
2018-11-23T06:20:38.728Z,19.37
2018-11-23T06:23:06.875Z,21.83
2018-11-23T06:25:40.240Z,27.13
2018-11-23T06:28:08.731Z,21.50
2018-11-23T06:30:37.172Z,20.10
2018-11-23T06:33:16.616Z,18.27
2018-11-23T06:35:45.059Z,17.30
2018-11-23T06:38:13.438Z,16.80
2018-11-23T06:40:41.800Z,17.77
2018-11-23T06:43:10.429Z,16.60
2018-11-23T06:45:40.848Z,17.30
2018-11-23T06:48:09.911Z,17.67
2018-11-23T06:50:37.809Z,17.33
2018-11-23T06:53:06.896Z,16.60
2018-11-23T06:55:36.441Z,17.60
2018-11-23T06:58:08.107Z,17.00
2018-11-23T07:00:36.797Z,16.63
2018-11-23T07:03:05.145Z,16.43
2018-11-23T07:05:34.032Z,19.67
2018-11-23T07:08:02.516Z,17.70
2018-11-23T07:10:30.825Z,17.20
2018-11-23T07:12:59.078Z,18.17
2018-11-23T07:15:27.821Z,16.00
2018-11-23T07:17:56.202Z,18.07
2018-11-23T07:20:24.219Z,16.23
2018-11-23T07:22:52.649Z,17.13
2018-11-23T07:25:20.830Z,16.37
2018-11-23T07:27:49.005Z,16.67
2018-11-23T07:30:22.529Z,17.57
2018-11-23T07:32:50.750Z,17.50
2018-11-23T07:35:19.023Z,18.60
2018-11-23T07:37:47.484Z,16.70
2018-11-23T07:40:28.315Z,18.03
2018-11-23T07:42:56.487Z,18.00
2018-11-23T07:45:24.346Z,17.30
2018-11-23T07:47:52.075Z,17.90
2018-11-23T07:50:19.991Z,18.40
2018-11-23T07:52:47.700Z,17.27
2018-11-23T07:55:15.725Z,17.03
2018-11-23T07:57:45.193Z,17.60
2018-11-23T08:00:15.072Z,17.70
2018-11-23T08:02:43.260Z,17.37
2018-11-23T08:05:12.712Z,17.20
2018-11-23T08:07:40.454Z,16.73
2018-11-23T08:10:12.060Z,17.20
2018-11-23T08:12:41.260Z,17.83
2018-11-23T08:15:12.919Z,17.50
2018-11-23T08:17:40.869Z,20.20
2018-11-23T08:20:10.584Z,19.13
2018-11-23T08:22:38.445Z,20.97
2018-11-23T08:25:07.262Z,20.03
2018-11-23T08:27:35.129Z,18.20
2018-11-23T08:30:04.061Z,19.50
2018-11-23T08:32:31.697Z,20.10
2018-11-23T08:35:00.110Z,19.00
2018-11-23T08:37:28.179Z,17.60
2018-11-23T08:39:55.990Z,20.07
2018-11-23T08:42:23.684Z,20.73
2018-11-23T08:44:51.434Z,19.90
2018-11-23T08:47:19.146Z,19.30
2018-11-23T08:49:47.171Z,19.17
2018-11-23T08:52:14.995Z,18.87
2018-11-23T08:54:42.682Z,17.60
2018-11-23T08:57:10.377Z,19.37
2018-11-23T08:59:38.386Z,18.53
2018-11-23T09:02:06.171Z,18.70
2018-11-23T09:04:33.997Z,18.13
2018-11-23T09:07:01.760Z,17.30
2018-11-23T09:09:29.390Z,16.80
2018-11-23T09:11:57.041Z,17.50
2018-11-23T09:14:24.977Z,18.10
2018-11-23T09:16:55.163Z,16.60
2018-11-23T09:19:23.129Z,18.10
2018-11-23T09:21:51.104Z,17.70
2018-11-23T09:24:19.576Z,17.93
2018-11-23T09:26:47.657Z,16.30
2018-11-23T09:29:16.698Z,18.67
2018-11-23T09:31:44.987Z,18.10
2018-11-23T09:34:12.707Z,18.80
2018-11-23T09:36:40.805Z,16.07
2018-11-23T09:39:08.792Z,17.70
2018-11-23T09:41:36.800Z,17.83
2018-11-23T09:44:05.240Z,16.03
2018-11-23T09:46:33.181Z,18.13
2018-11-23T09:49:01.171Z,16.87
2018-11-23T09:51:29.419Z,17.70
2018-11-23T09:53:57.835Z,17.80
2018-11-23T09:56:25.850Z,17.70
2018-11-23T09:58:53.638Z,17.90
2018-11-23T10:01:22.050Z,17.80
2018-11-23T10:03:50.160Z,17.20
2018-11-23T10:06:18.076Z,19.10
2018-11-23T10:08:46.242Z,18.50
2018-11-23T10:11:14.491Z,16.73
2018-11-23T10:13:43.004Z,16.87
2018-11-23T10:16:10.808Z,19.20
2018-11-23T10:18:39.009Z,17.50
2018-11-23T10:21:07.426Z,18.37
2018-11-23T10:23:36.035Z,18.87
2018-11-23T10:26:04.294Z,17.87
2018-11-23T10:28:33.117Z,18.00
2018-11-23T10:31:01.907Z,16.83
2018-11-23T10:33:30.042Z,16.90
2018-11-23T10:35:58.669Z,17.60
2018-11-23T10:38:26.758Z,17.43
2018-11-23T10:40:55.090Z,18.00
2018-11-23T10:43:23.607Z,17.53
2018-11-23T10:45:51.627Z,18.57
2018-11-23T10:48:20.644Z,18.10
2018-11-23T10:50:48.613Z,17.40
2018-11-23T10:53:16.897Z,16.87
2018-11-23T10:55:45.400Z,17.93
2018-11-23T10:58:13.637Z,18.23
2018-11-23T11:00:47.653Z,17.67
2018-11-23T11:03:33.492Z,19.03
2018-11-23T11:06:11.812Z,18.07
2018-11-23T11:08:39.993Z,16.80
2018-11-23T11:11:08.226Z,20.43
2018-11-23T11:13:36.801Z,19.80
2018-11-23T11:16:09.140Z,21.13
2018-11-23T11:18:37.829Z,22.60
2018-11-23T11:21:05.789Z,20.93
2018-11-23T11:23:33.624Z,19.90
2018-11-23T11:26:01.496Z,19.37
2018-11-23T11:28:29.494Z,18.50
2018-11-23T11:30:57.211Z,20.17
2018-11-23T11:33:25.047Z,19.87
2018-11-23T11:35:52.738Z,19.43
2018-11-23T11:38:20.553Z,20.47
2018-11-23T11:40:49.468Z,20.27
2018-11-23T11:43:17.349Z,17.77
2018-11-23T11:45:45.064Z,16.97
2018-11-23T11:48:12.958Z,17.67
2018-11-23T11:50:40.686Z,17.70
2018-11-23T11:53:08.585Z,17.37
2018-11-23T11:55:36.800Z,16.53
2018-11-23T11:58:06.049Z,16.10
2018-11-23T12:00:33.884Z,16.90
2018-11-23T12:03:01.713Z,14.40
2018-11-23T12:05:29.401Z,13.57
2018-11-23T12:07:57.152Z,13.57
2018-11-23T12:10:25.677Z,13.03
2018-11-23T12:12:53.305Z,12.20
2018-11-23T12:15:21.137Z,13.70
2018-11-23T12:17:48.964Z,13.80
2018-11-23T12:20:19.178Z,12.97
2018-11-23T12:22:47.295Z,21.20
2018-11-23T12:25:15.055Z,25.03
2018-11-23T12:27:43.104Z,24.93
2018-11-23T12:30:13.231Z,22.10
2018-11-23T12:32:41.579Z,18.70
2018-11-23T12:35:10.584Z,19.10
2018-11-23T12:37:38.434Z,19.60
2018-11-23T12:40:08.001Z,18.73
2018-11-23T12:42:35.528Z,16.37
2018-11-23T12:45:03.221Z,16.77
2018-11-23T12:47:30.811Z,18.30
2018-11-23T12:49:58.594Z,17.20
2018-11-23T12:52:27.510Z,16.60
2018-11-23T12:54:55.777Z,14.90
2018-11-23T12:57:35.031Z,15.70
2018-11-23T13:00:02.785Z,14.87
2018-11-23T13:02:30.573Z,13.80
2018-11-23T13:04:59.046Z,13.17
2018-11-23T13:07:26.692Z,13.40
2018-11-23T13:09:54.472Z,14.10
2018-11-23T13:12:22.656Z,14.50
2018-11-23T13:14:50.712Z,12.30
2018-11-23T13:17:18.651Z,11.90
2018-11-23T13:19:46.333Z,11.63
2018-11-23T13:22:14.195Z,13.60
2018-11-23T13:24:41.901Z,13.90
2018-11-23T13:27:13.747Z,10.97
2018-11-23T13:29:41.565Z,12.40
2018-11-23T13:32:09.326Z,12.23
2018-11-23T13:34:37.097Z,12.70
2018-11-23T13:37:04.945Z,14.30
2018-11-23T13:39:32.879Z,12.53
2018-11-23T13:42:00.599Z,13.80
2018-11-23T13:44:28.494Z,13.73
2018-11-23T13:46:56.273Z,13.53
2018-11-23T13:49:24.198Z,13.10
2018-11-23T13:51:51.944Z,11.20
2018-11-23T13:54:19.620Z,11.37
2018-11-23T13:56:47.389Z,11.30
2018-11-23T13:59:15.074Z,11.07
2018-11-23T14:01:42.827Z,10.33
2018-11-23T14:04:10.547Z,11.50
2018-11-23T14:06:38.537Z,11.37
2018-11-23T14:09:09.150Z,12.10
2018-11-23T14:11:37.391Z,10.50
2018-11-23T14:14:05.961Z,10.93
2018-11-23T14:16:33.742Z,9.73
2018-11-23T14:19:01.526Z,10.17
2018-11-23T14:21:29.587Z,9.03
2018-11-23T14:23:57.451Z,9.07
2018-11-23T14:26:25.506Z,8.40
2018-11-23T14:28:53.423Z,6.83
2018-11-23T14:31:21.686Z,8.00
2018-11-23T14:33:49.663Z,6.80
2018-11-23T14:36:17.563Z,8.20
2018-11-23T14:38:45.444Z,9.60
2018-11-23T14:41:13.203Z,10.20
2018-11-23T14:43:40.946Z,9.90
2018-11-23T14:46:09.088Z,9.80
2018-11-23T14:48:37.037Z,9.00
2018-11-23T14:51:04.647Z,9.60
2018-11-23T14:53:32.457Z,7.33
2018-11-23T14:56:00.266Z,8.77
2018-11-23T14:58:28.022Z,8.50
2018-11-23T15:00:55.742Z,9.53
2018-11-23T15:03:24.139Z,10.17
2018-11-23T15:05:51.962Z,10.67
2018-11-23T15:08:19.685Z,11.70
2018-11-23T15:10:47.502Z,19.43
2018-11-23T15:13:15.226Z,17.73
2018-11-23T15:15:43.122Z,17.90
2018-11-23T15:18:10.821Z,15.63
2018-11-23T15:20:40.987Z,16.90
2018-11-23T15:23:14.491Z,16.20
2018-11-23T15:25:42.183Z,18.00
2018-11-23T15:28:10.918Z,16.03
2018-11-23T15:30:39.857Z,15.53
2018-11-23T15:33:09.963Z,17.43
2018-11-23T15:35:38.301Z,17.90
2018-11-23T15:38:10.230Z,17.30
2018-11-23T15:40:35.583Z,17.90
2018-11-23T15:43:05.027Z,18.80
2018-11-23T15:45:33.443Z,19.27
2018-11-23T15:48:01.466Z,16.57
2018-11-23T15:50:30.806Z,16.57
2018-11-23T15:52:58.913Z,15.20
2018-11-23T15:55:28.252Z,14.70
2018-11-23T15:57:57.672Z,13.87
2018-11-23T16:00:27.735Z,13.50
2018-11-23T16:02:55.775Z,12.23
2018-11-23T16:05:23.909Z,13.57
2018-11-23T16:07:53.209Z,12.10
2018-11-23T16:10:23.609Z,14.27
2018-11-23T16:12:52.818Z,11.43
2018-11-23T16:15:21.297Z,12.07
2018-11-23T16:17:49.598Z,11.40
2018-11-23T16:20:26.007Z,11.10
2018-11-23T16:22:56.142Z,10.80
2018-11-23T16:25:24.037Z,10.37
2018-11-23T16:27:54.414Z,12.10
2018-11-23T16:30:23.344Z,80.27
2018-11-23T16:32:52.206Z,45.87
2018-11-23T16:35:23.505Z,29.20
2018-11-23T16:37:51.989Z,19.40
2018-11-23T16:40:21.352Z,16.10
2018-11-23T16:42:49.348Z,12.90
2018-11-23T16:45:19.604Z,13.50
2018-11-23T16:47:47.982Z,12.90
2018-11-23T16:50:15.997Z,11.90
2018-11-23T16:52:45.889Z,11.80
2018-11-23T16:55:15.045Z,11.83
2018-11-23T16:57:44.626Z,13.87
2018-11-23T17:00:15.571Z,14.07
2018-11-23T17:02:43.789Z,13.90
2018-11-23T17:05:13.108Z,14.10
2018-11-23T17:07:41.321Z,12.20
2018-11-23T17:10:11.359Z,12.60
2018-11-23T17:12:39.896Z,14.33
2018-11-23T17:15:09.872Z,15.27
2018-11-23T17:17:37.749Z,14.17
2018-11-23T17:20:08.372Z,14.50
2018-11-23T17:22:36.736Z,15.00
2018-11-23T17:25:05.960Z,14.30
2018-11-23T17:27:33.987Z,13.77
2018-11-23T17:30:02.307Z,15.80
2018-11-23T17:32:30.590Z,15.80
2018-11-23T17:34:59.033Z,15.10
2018-11-23T17:37:27.094Z,16.30
2018-11-23T17:39:55.369Z,14.80
2018-11-23T17:42:23.810Z,16.43
2018-11-23T17:44:51.809Z,17.20
2018-11-23T17:47:19.846Z,15.67
2018-11-23T17:49:48.278Z,14.80
2018-11-23T17:52:16.611Z,17.80
2018-11-23T17:54:44.989Z,16.83
2018-11-23T17:57:13.153Z,18.30
2018-11-23T17:59:46.422Z,17.20
2018-11-23T18:02:16.889Z,19.00
2018-11-23T18:04:45.357Z,17.90
2018-11-23T18:07:13.572Z,16.90
2018-11-23T18:09:41.515Z,19.00
2018-11-23T18:12:09.398Z,17.27
2018-11-23T18:14:37.367Z,19.70
2018-11-23T18:17:05.658Z,19.50
2018-11-23T18:19:34.192Z,20.13
2018-11-23T18:22:02.541Z,17.77
2018-11-23T18:24:30.566Z,17.50
2018-11-23T18:26:58.613Z,18.90
2018-11-23T18:29:26.477Z,16.87
2018-11-23T18:31:55.114Z,17.47
2018-11-23T18:34:23.071Z,19.37
2018-11-23T18:36:51.128Z,18.97
2018-11-23T18:39:19.250Z,18.63
2018-11-23T18:41:47.381Z,18.70
2018-11-23T18:44:15.667Z,19.83
2018-11-23T18:46:43.433Z,17.70
2018-11-23T18:49:11.172Z,18.80
2018-11-23T18:51:39.150Z,19.40
2018-11-23T18:54:07.503Z,19.37
2018-11-23T18:56:35.804Z,18.30
2018-11-23T18:59:03.995Z,18.27
2018-11-23T19:01:32.333Z,17.47
2018-11-23T19:04:00.585Z,17.70
2018-11-23T19:06:28.851Z,18.30
2018-11-23T19:08:57.489Z,19.30
2018-11-23T19:11:25.772Z,17.37
2018-11-23T19:13:53.907Z,17.87
2018-11-23T19:16:22.053Z,18.80
2018-11-23T19:18:50.698Z,19.77
2018-11-23T19:21:19.366Z,19.17
2018-11-23T19:23:47.644Z,19.43
2018-11-23T19:26:17.695Z,19.30
2018-11-23T19:28:45.641Z,18.93
2018-11-23T19:31:13.683Z,18.40
2018-11-23T19:33:41.738Z,18.63
2018-11-23T19:36:09.864Z,18.00
2018-11-23T19:38:38.232Z,18.77
2018-11-23T19:41:06.365Z,17.40
2018-11-23T19:43:34.432Z,21.23
2018-11-23T19:46:02.438Z,19.30
2018-11-23T19:48:30.615Z,17.67
2018-11-23T19:50:58.967Z,19.23
2018-11-23T19:53:27.448Z,18.63
2018-11-23T19:55:55.811Z,18.50
2018-11-23T19:58:25.700Z,19.00
2018-11-23T20:00:53.495Z,18.17
2018-11-23T20:03:21.522Z,16.93
2018-11-23T20:05:49.202Z,18.10
2018-11-23T20:08:17.027Z,15.63
2018-11-23T20:10:44.905Z,17.40
2018-11-23T20:13:12.574Z,16.43
2018-11-23T20:15:40.412Z,18.57
2018-11-23T20:18:08.571Z,18.20
2018-11-23T20:20:37.107Z,18.47
2018-11-23T20:23:05.361Z,17.33
2018-11-23T20:25:33.712Z,17.70
2018-11-23T20:28:01.981Z,17.20
2018-11-23T20:30:30.095Z,17.67
2018-11-23T20:32:58.141Z,17.27
2018-11-23T20:35:26.237Z,18.00
2018-11-23T20:37:54.811Z,17.70
2018-11-23T20:40:23.359Z,17.33
2018-11-23T20:42:51.566Z,17.93
2018-11-23T20:45:20.617Z,18.27
2018-11-23T20:47:48.957Z,16.30
2018-11-23T20:50:17.675Z,17.90
2018-11-23T20:52:46.125Z,16.10
2018-11-23T20:55:17.471Z,16.07
2018-11-23T20:57:45.870Z,16.30
2018-11-23T21:00:17.891Z,15.73
2018-11-23T21:02:46.593Z,16.83
2018-11-23T21:05:16.527Z,14.37
2018-11-23T21:07:44.678Z,15.70
2018-11-23T21:10:19.931Z,16.17
2018-11-23T21:12:41.895Z,16.30
2018-11-23T21:15:22.954Z,17.17
2018-11-23T21:17:51.105Z,15.30
2018-11-23T21:20:19.297Z,15.93
2018-11-23T21:22:47.616Z,15.43
2018-11-23T21:25:15.807Z,16.30
2018-11-23T21:27:44.061Z,14.63
2018-11-23T21:30:15.050Z,14.17
2018-11-23T21:32:43.004Z,14.50
2018-11-23T21:35:11.257Z,15.30
2018-11-23T21:37:39.417Z,13.83
2018-11-23T21:40:11.808Z,13.60
2018-11-23T21:42:39.733Z,14.60
2018-11-23T21:45:13.684Z,14.47
2018-11-23T21:47:41.593Z,13.97
2018-11-23T21:50:10.911Z,13.57
2018-11-23T21:52:38.719Z,12.93
2018-11-23T21:55:08.908Z,12.63
2018-11-23T21:57:36.978Z,13.50
2018-11-23T22:00:05.912Z,13.43
2018-11-23T22:02:33.743Z,13.43
2018-11-23T22:05:01.783Z,13.03
2018-11-23T22:07:29.681Z,13.70
2018-11-23T22:09:57.406Z,24.60
2018-11-23T22:12:24.983Z,22.57
2018-11-23T22:14:52.820Z,16.97
2018-11-23T22:17:20.577Z,16.40
2018-11-23T22:19:48.385Z,13.50
2018-11-23T22:22:16.122Z,12.40
2018-11-23T22:24:43.992Z,12.67
2018-11-23T22:27:12.022Z,12.10
2018-11-23T22:29:39.741Z,12.23
2018-11-23T22:32:07.446Z,12.93
2018-11-23T22:34:35.204Z,14.30
2018-11-23T22:37:03.041Z,13.90
2018-11-23T22:39:31.429Z,12.13
2018-11-23T22:41:59.348Z,13.37
2018-11-23T22:44:27.428Z,11.87
2018-11-23T22:46:55.813Z,12.70
2018-11-23T22:49:24.589Z,12.60
2018-11-23T22:51:52.641Z,12.60
2018-11-23T22:54:21.612Z,11.73
2018-11-23T22:56:49.750Z,13.43
2018-11-23T22:59:17.989Z,12.97
2018-11-23T23:01:46.236Z,12.90
2018-11-23T23:04:14.710Z,12.00
2018-11-23T23:06:42.701Z,12.90
2018-11-23T23:09:10.861Z,13.40
2018-11-23T23:11:39.244Z,13.70
2018-11-23T23:14:07.325Z,12.17
2018-11-23T23:16:35.643Z,14.00
2018-11-23T23:19:04.155Z,11.60
2018-11-23T23:21:33.269Z,11.53
2018-11-23T23:24:01.713Z,13.50
2018-11-23T23:26:29.942Z,13.50
2018-11-23T23:28:58.039Z,13.13
2018-11-23T23:31:26.136Z,13.07
2018-11-23T23:33:54.788Z,11.80
2018-11-23T23:36:23.197Z,13.43
2018-11-23T23:38:51.269Z,11.97
2018-11-23T23:41:19.266Z,12.03
2018-11-23T23:43:48.319Z,11.80
2018-11-23T23:46:16.536Z,12.80
2018-11-23T23:48:44.854Z,11.70
2018-11-23T23:51:13.283Z,13.40
2018-11-23T23:53:41.457Z,13.50
2018-11-23T23:56:09.654Z,13.07
2018-11-23T23:58:38.181Z,12.37
